sensor_id;sensor_type;location;lat;lon;timestamp;pressure;altitude;pressure_sealevel;temperature;humidity
53041;BME280;39326;42.650;23.248;2023-07-31T00:01:53;92323.72;;;18.85;80.48
53041;BME280;39326;42.650;23.248;2023-07-31T00:04:19;92334.88;;;18.75;80.94
53041;BME280;39326;42.650;23.248;2023-07-31T00:06:44;92334.16;;;18.61;81.92
53041;BME280;39326;42.650;23.248;2023-07-31T00:09:10;92325.72;;;18.72;79.91
53041;BME280;39326;42.650;23.248;2023-07-31T00:11:35;92329.63;;;18.71;79.93
53041;BME280;39326;42.650;23.248;2023-07-31T00:14:01;92340.13;;;18.69;80.98
53041;BME280;39326;42.650;23.248;2023-07-31T00:16:26;92342.06;;;18.68;80.37
53041;BME280;39326;42.650;23.248;2023-07-31T00:18:52;92329.06;;;18.76;80.13
53041;BME280;39326;42.650;23.248;2023-07-31T00:21:17;92328.53;;;18.68;81.31
53041;BME280;39326;42.650;23.248;2023-07-31T00:23:43;92324.56;;;18.60;81.44
53041;BME280;39326;42.650;23.248;2023-07-31T00:26:08;92320.88;;;18.67;80.81
53041;BME280;39326;42.650;23.248;2023-07-31T00:28:34;92308.97;;;18.77;80.11
53041;BME280;39326;42.650;23.248;2023-07-31T00:30:59;92302.09;;;18.85;79.25
53041;BME280;39326;42.650;23.248;2023-07-31T00:33:24;92292.38;;;18.88;79.51
53041;BME280;39326;42.650;23.248;2023-07-31T00:35:50;92290.56;;;18.94;78.83
53041;BME280;39326;42.650;23.248;2023-07-31T00:38:15;92286.34;;;18.84;80.37
53041;BME280;39326;42.650;23.248;2023-07-31T00:40:41;92283.00;;;18.80;81.63
53041;BME280;39326;42.650;23.248;2023-07-31T00:43:06;92283.88;;;18.77;81.07
53041;BME280;39326;42.650;23.248;2023-07-31T00:45:32;92292.84;;;18.74;80.26
53041;BME280;39326;42.650;23.248;2023-07-31T00:47:58;92296.69;;;18.63;81.10
53041;BME280;39326;42.650;23.248;2023-07-31T00:50:24;92303.47;;;18.68;80.58
53041;BME280;39326;42.650;23.248;2023-07-31T00:52:50;92294.31;;;18.65;81.27
53041;BME280;39326;42.650;23.248;2023-07-31T00:55:16;92297.84;;;18.62;82.10
53041;BME280;39326;42.650;23.248;2023-07-31T00:57:42;92288.78;;;18.69;81.10
53041;BME280;39326;42.650;23.248;2023-07-31T01:00:08;92285.53;;;18.61;81.95
53041;BME280;39326;42.650;23.248;2023-07-31T01:02:34;92295.69;;;18.70;80.99
53041;BME280;39326;42.650;23.248;2023-07-31T01:05:01;92290.72;;;18.68;81.08
53041;BME280;39326;42.650;23.248;2023-07-31T01:07:33;92291.16;;;18.67;81.55
53041;BME280;39326;42.650;23.248;2023-07-31T01:10:02;92294.84;;;18.60;81.97
53041;BME280;39326;42.650;23.248;2023-07-31T01:12:31;92297.53;;;18.60;82.40
53041;BME280;39326;42.650;23.248;2023-07-31T01:15:07;92281.34;;;18.60;82.30
53041;BME280;39326;42.650;23.248;2023-07-31T01:17:36;92272.03;;;18.61;82.09
53041;BME280;39326;42.650;23.248;2023-07-31T01:20:03;92284.47;;;18.59;82.59
53041;BME280;39326;42.650;23.248;2023-07-31T01:22:44;92280.66;;;18.47;83.76
53041;BME280;39326;42.650;23.248;2023-07-31T01:25:26;92282.59;;;18.47;83.95
53041;BME280;39326;42.650;23.248;2023-07-31T01:28:11;92278.94;;;18.40;85.00
53041;BME280;39326;42.650;23.248;2023-07-31T01:30:42;92280.00;;;18.43;85.17
53041;BME280;39326;42.650;23.248;2023-07-31T01:33:08;92272.09;;;18.49;84.37
53041;BME280;39326;42.650;23.248;2023-07-31T01:35:35;92283.72;;;18.58;84.04
53041;BME280;39326;42.650;23.248;2023-07-31T01:38:01;92271.16;;;18.64;83.57
53041;BME280;39326;42.650;23.248;2023-07-31T01:40:26;92280.69;;;18.56;84.60
53041;BME280;39326;42.650;23.248;2023-07-31T01:42:52;92273.03;;;18.55;84.32
53041;BME280;39326;42.650;23.248;2023-07-31T01:45:17;92275.00;;;18.54;84.62
53041;BME280;39326;42.650;23.248;2023-07-31T01:47:43;92276.06;;;18.57;84.45
53041;BME280;39326;42.650;23.248;2023-07-31T01:50:09;92272.84;;;18.49;84.79
53041;BME280;39326;42.650;23.248;2023-07-31T01:52:34;92274.38;;;18.50;84.61
53041;BME280;39326;42.650;23.248;2023-07-31T01:55:00;92271.72;;;18.59;84.21
53041;BME280;39326;42.650;23.248;2023-07-31T01:57:25;92275.94;;;18.60;84.11
53041;BME280;39326;42.650;23.248;2023-07-31T01:59:51;92275.94;;;18.60;84.06
53041;BME280;39326;42.650;23.248;2023-07-31T02:02:18;92267.34;;;18.53;84.77
53041;BME280;39326;42.650;23.248;2023-07-31T02:04:44;92281.91;;;18.55;84.81
53041;BME280;39326;42.650;23.248;2023-07-31T02:07:09;92281.03;;;18.58;84.85
53041;BME280;39326;42.650;23.248;2023-07-31T02:09:35;92277.38;;;18.52;84.86
53041;BME280;39326;42.650;23.248;2023-07-31T02:12:00;92279.59;;;18.45;85.95
53041;BME280;39326;42.650;23.248;2023-07-31T02:14:26;92282.72;;;18.43;85.96
53041;BME280;39326;42.650;23.248;2023-07-31T02:16:51;92288.84;;;18.44;85.85
53041;BME280;39326;42.650;23.248;2023-07-31T02:19:16;92289.50;;;18.48;85.69
53041;BME280;39326;42.650;23.248;2023-07-31T02:21:42;92286.09;;;18.56;85.78
53041;BME280;39326;42.650;23.248;2023-07-31T02:24:07;92283.50;;;18.65;84.37
53041;BME280;39326;42.650;23.248;2023-07-31T02:26:32;92283.16;;;18.63;84.72
53041;BME280;39326;42.650;23.248;2023-07-31T02:28:58;92290.53;;;18.63;84.87
53041;BME280;39326;42.650;23.248;2023-07-31T02:31:23;92296.91;;;18.56;85.34
53041;BME280;39326;42.650;23.248;2023-07-31T02:33:49;92289.09;;;18.71;84.09
53041;BME280;39326;42.650;23.248;2023-07-31T02:36:14;92289.97;;;18.68;84.16
53041;BME280;39326;42.650;23.248;2023-07-31T02:38:40;92295.38;;;18.68;84.54
53041;BME280;39326;42.650;23.248;2023-07-31T02:41:05;92292.28;;;18.79;83.40
53041;BME280;39326;42.650;23.248;2023-07-31T02:43:31;92291.44;;;18.82;83.42
53041;BME280;39326;42.650;23.248;2023-07-31T02:45:56;92290.91;;;18.74;83.68
53041;BME280;39326;42.650;23.248;2023-07-31T02:48:21;92294.06;;;18.73;83.66
53041;BME280;39326;42.650;23.248;2023-07-31T02:50:47;92297.50;;;18.73;83.42
53041;BME280;39326;42.650;23.248;2023-07-31T02:53:13;92300.84;;;18.77;83.02
53041;BME280;39326;42.650;23.248;2023-07-31T02:55:39;92307.25;;;18.71;83.79
53041;BME280;39326;42.650;23.248;2023-07-31T02:58:04;92302.72;;;18.67;83.59
53041;BME280;39326;42.650;23.248;2023-07-31T03:00:30;92303.06;;;18.70;83.25
53041;BME280;39326;42.650;23.248;2023-07-31T03:02:55;92309.63;;;18.68;83.48
53041;BME280;39326;42.650;23.248;2023-07-31T03:05:20;92305.06;;;18.78;83.15
53041;BME280;39326;42.650;23.248;2023-07-31T03:07:46;92308.22;;;18.77;83.70
53041;BME280;39326;42.650;23.248;2023-07-31T03:10:11;92305.56;;;18.86;82.98
53041;BME280;39326;42.650;23.248;2023-07-31T03:12:37;92306.00;;;18.84;82.74
53041;BME280;39326;42.650;23.248;2023-07-31T03:15:02;92300.59;;;18.84;82.59
53041;BME280;39326;42.650;23.248;2023-07-31T03:17:28;92304.41;;;18.96;81.54
53041;BME280;39326;42.650;23.248;2023-07-31T03:19:53;92326.50;;;18.94;82.08
53041;BME280;39326;42.650;23.248;2023-07-31T03:22:19;92313.84;;;18.91;82.00
53041;BME280;39326;42.650;23.248;2023-07-31T03:24:44;92317.81;;;18.78;82.20
53041;BME280;39326;42.650;23.248;2023-07-31T03:27:09;92317.66;;;18.81;82.36
53041;BME280;39326;42.650;23.248;2023-07-31T03:29:35;92321.16;;;18.82;82.53
53041;BME280;39326;42.650;23.248;2023-07-31T03:32:00;92319.97;;;18.83;82.20
53041;BME280;39326;42.650;23.248;2023-07-31T03:34:26;92329.25;;;18.82;82.30
53041;BME280;39326;42.650;23.248;2023-07-31T03:36:51;92322.22;;;18.84;81.96
53041;BME280;39326;42.650;23.248;2023-07-31T03:39:17;92321.94;;;18.91;81.44
53041;BME280;39326;42.650;23.248;2023-07-31T03:41:42;92329.63;;;18.93;81.45
53041;BME280;39326;42.650;23.248;2023-07-31T03:44:07;92330.19;;;18.88;81.83
53041;BME280;39326;42.650;23.248;2023-07-31T03:46:33;92332.47;;;18.89;81.82
53041;BME280;39326;42.650;23.248;2023-07-31T03:48:59;92336.16;;;18.83;82.08
53041;BME280;39326;42.650;23.248;2023-07-31T03:51:24;92343.53;;;18.82;82.44
53041;BME280;39326;42.650;23.248;2023-07-31T03:53:49;92347.78;;;18.92;81.74
53041;BME280;39326;42.650;23.248;2023-07-31T03:56:15;92354.09;;;18.89;81.91
53041;BME280;39326;42.650;23.248;2023-07-31T03:58:40;92337.47;;;18.78;81.82
53041;BME280;39326;42.650;23.248;2023-07-31T04:01:06;92343.06;;;18.84;81.66
53041;BME280;39326;42.650;23.248;2023-07-31T04:03:31;92346.09;;;18.86;81.77
53041;BME280;39326;42.650;23.248;2023-07-31T04:05:56;92351.50;;;18.86;81.39
53041;BME280;39326;42.650;23.248;2023-07-31T04:08:22;92346.28;;;18.91;81.37
53041;BME280;39326;42.650;23.248;2023-07-31T04:10:48;92349.72;;;18.92;80.84
53041;BME280;39326;42.650;23.248;2023-07-31T04:13:14;92349.94;;;18.98;81.26
53041;BME280;39326;42.650;23.248;2023-07-31T04:15:39;92351.31;;;19.02;81.19
53041;BME280;39326;42.650;23.248;2023-07-31T04:18:05;92351.63;;;19.04;80.93
53041;BME280;39326;42.650;23.248;2023-07-31T04:20:30;92352.81;;;19.03;81.02
53041;BME280;39326;42.650;23.248;2023-07-31T04:22:56;92357.97;;;19.10;80.28
53041;BME280;39326;42.650;23.248;2023-07-31T04:25:21;92363.06;;;19.08;80.14
53041;BME280;39326;42.650;23.248;2023-07-31T04:27:47;92364.19;;;18.98;80.48
53041;BME280;39326;42.650;23.248;2023-07-31T04:30:12;92367.03;;;18.94;80.24
53041;BME280;39326;42.650;23.248;2023-07-31T04:32:38;92364.94;;;18.99;80.20
53041;BME280;39326;42.650;23.248;2023-07-31T04:35:03;92359.41;;;19.02;80.13
53041;BME280;39326;42.650;23.248;2023-07-31T04:37:29;92355.81;;;19.05;79.23
53041;BME280;39326;42.650;23.248;2023-07-31T04:39:54;92359.28;;;19.06;79.41
53041;BME280;39326;42.650;23.248;2023-07-31T04:42:19;92355.13;;;18.92;79.70
53041;BME280;39326;42.650;23.248;2023-07-31T04:44:45;92364.06;;;19.02;79.52
53041;BME280;39326;42.650;23.248;2023-07-31T04:47:10;92353.13;;;19.05;79.59
53041;BME280;39326;42.650;23.248;2023-07-31T04:49:36;92347.91;;;19.11;78.68
53041;BME280;39326;42.650;23.248;2023-07-31T04:52:02;92346.84;;;19.08;79.42
53041;BME280;39326;42.650;23.248;2023-07-31T04:54:27;92343.31;;;19.20;78.76
53041;BME280;39326;42.650;23.248;2023-07-31T04:56:53;92342.91;;;19.31;78.50
53041;BME280;39326;42.650;23.248;2023-07-31T04:59:18;92342.22;;;19.40;77.73
53041;BME280;39326;42.650;23.248;2023-07-31T05:01:43;92344.16;;;19.39;77.86
53041;BME280;39326;42.650;23.248;2023-07-31T05:04:13;92347.44;;;19.34;77.21
53041;BME280;39326;42.650;23.248;2023-07-31T05:06:39;92346.72;;;19.43;77.33
53041;BME280;39326;42.650;23.248;2023-07-31T05:09:04;92356.34;;;19.44;76.98
53041;BME280;39326;42.650;23.248;2023-07-31T05:11:30;92349.56;;;19.39;77.13
53041;BME280;39326;42.650;23.248;2023-07-31T05:13:55;92358.06;;;19.51;76.62
53041;BME280;39326;42.650;23.248;2023-07-31T05:16:20;92351.38;;;19.42;76.79
53041;BME280;39326;42.650;23.248;2023-07-31T05:18:46;92350.50;;;19.45;76.84
53041;BME280;39326;42.650;23.248;2023-07-31T05:21:11;92339.19;;;19.38;76.73
53041;BME280;39326;42.650;23.248;2023-07-31T05:23:37;92349.69;;;19.36;77.38
53041;BME280;39326;42.650;23.248;2023-07-31T05:26:06;92351.91;;;19.28;77.51
53041;BME280;39326;42.650;23.248;2023-07-31T05:28:34;92355.09;;;19.36;77.26
53041;BME280;39326;42.650;23.248;2023-07-31T05:31:00;92347.06;;;19.45;76.48
53041;BME280;39326;42.650;23.248;2023-07-31T05:33:26;92343.66;;;19.54;76.59
53041;BME280;39326;42.650;23.248;2023-07-31T05:35:52;92352.31;;;19.70;75.81
53041;BME280;39326;42.650;23.248;2023-07-31T05:38:17;92360.91;;;19.78;75.50
53041;BME280;39326;42.650;23.248;2023-07-31T05:40:43;92349.97;;;19.91;74.82
53041;BME280;39326;42.650;23.248;2023-07-31T05:43:08;92356.34;;;19.75;75.21
53041;BME280;39326;42.650;23.248;2023-07-31T05:45:34;92345.97;;;19.73;74.35
53041;BME280;39326;42.650;23.248;2023-07-31T05:48:00;92356.06;;;19.82;73.96
53041;BME280;39326;42.650;23.248;2023-07-31T05:50:25;92355.78;;;19.80;74.30
53041;BME280;39326;42.650;23.248;2023-07-31T05:52:51;92356.25;;;19.88;74.13
53041;BME280;39326;42.650;23.248;2023-07-31T05:55:17;92357.63;;;19.92;73.90
53041;BME280;39326;42.650;23.248;2023-07-31T05:57:42;92354.75;;;19.87;73.36
53041;BME280;39326;42.650;23.248;2023-07-31T06:00:08;92354.47;;;19.94;73.39
53041;BME280;39326;42.650;23.248;2023-07-31T06:02:34;92355.22;;;19.94;72.81
53041;BME280;39326;42.650;23.248;2023-07-31T06:05:02;92363.84;;;20.02;71.96
53041;BME280;39326;42.650;23.248;2023-07-31T06:07:29;92360.97;;;19.96;72.05
53041;BME280;39326;42.650;23.248;2023-07-31T06:09:54;92362.63;;;20.12;72.07
53041;BME280;39326;42.650;23.248;2023-07-31T06:12:20;92368.53;;;20.20;71.62
53041;BME280;39326;42.650;23.248;2023-07-31T06:14:46;92366.88;;;20.22;71.06
53041;BME280;39326;42.650;23.248;2023-07-31T06:17:11;92371.75;;;20.37;70.72
53041;BME280;39326;42.650;23.248;2023-07-31T06:19:36;92370.41;;;20.50;69.10
53041;BME280;39326;42.650;23.248;2023-07-31T06:22:02;92372.06;;;20.48;67.62
53041;BME280;39326;42.650;23.248;2023-07-31T06:24:28;92372.81;;;20.58;66.82
53041;BME280;39326;42.650;23.248;2023-07-31T06:26:54;92379.91;;;20.46;66.72
53041;BME280;39326;42.650;23.248;2023-07-31T06:29:20;92376.53;;;20.23;66.17
53041;BME280;39326;42.650;23.248;2023-07-31T06:31:46;92369.00;;;20.27;65.71
53041;BME280;39326;42.650;23.248;2023-07-31T06:34:11;92371.22;;;20.20;65.63
53041;BME280;39326;42.650;23.248;2023-07-31T06:36:36;92369.44;;;20.26;66.87
53041;BME280;39326;42.650;23.248;2023-07-31T06:39:02;92375.38;;;20.34;67.31
53041;BME280;39326;42.650;23.248;2023-07-31T06:41:28;92373.34;;;20.25;66.89
53041;BME280;39326;42.650;23.248;2023-07-31T06:43:54;92374.63;;;20.42;66.28
53041;BME280;39326;42.650;23.248;2023-07-31T06:46:19;92375.09;;;20.50;66.36
53041;BME280;39326;42.650;23.248;2023-07-31T06:48:45;92372.97;;;20.63;65.71
53041;BME280;39326;42.650;23.248;2023-07-31T06:51:10;92378.72;;;20.65;66.03
53041;BME280;39326;42.650;23.248;2023-07-31T06:53:35;92376.31;;;20.58;65.31
53041;BME280;39326;42.650;23.248;2023-07-31T06:56:01;92377.94;;;20.55;66.01
53041;BME280;39326;42.650;23.248;2023-07-31T06:58:26;92379.31;;;20.60;65.76
53041;BME280;39326;42.650;23.248;2023-07-31T07:00:52;92365.31;;;20.62;65.26
53041;BME280;39326;42.650;23.248;2023-07-31T07:03:20;92368.94;;;20.77;65.43
53041;BME280;39326;42.650;23.248;2023-07-31T07:05:46;92365.00;;;20.87;65.05
53041;BME280;39326;42.650;23.248;2023-07-31T07:08:11;92356.75;;;20.91;62.89
53041;BME280;39326;42.650;23.248;2023-07-31T07:10:37;92351.63;;;21.02;62.66
53041;BME280;39326;42.650;23.248;2023-07-31T07:13:02;92357.34;;;21.13;62.02
53041;BME280;39326;42.650;23.248;2023-07-31T07:15:28;92350.25;;;21.16;61.53
53041;BME280;39326;42.650;23.248;2023-07-31T07:17:54;92362.16;;;21.18;61.08
53041;BME280;39326;42.650;23.248;2023-07-31T07:20:19;92359.72;;;21.20;61.54
53041;BME280;39326;42.650;23.248;2023-07-31T07:22:45;92364.53;;;21.34;60.41
53041;BME280;39326;42.650;23.248;2023-07-31T07:25:10;92367.97;;;21.44;59.91
53041;BME280;39326;42.650;23.248;2023-07-31T07:27:36;92375.50;;;21.49;59.85
53041;BME280;39326;42.650;23.248;2023-07-31T07:30:01;92376.53;;;21.61;60.16
53041;BME280;39326;42.650;23.248;2023-07-31T07:32:27;92363.72;;;21.61;59.07
53041;BME280;39326;42.650;23.248;2023-07-31T07:34:52;92357.19;;;21.77;58.19
53041;BME280;39326;42.650;23.248;2023-07-31T07:37:18;92373.09;;;22.03;58.66
53041;BME280;39326;42.650;23.248;2023-07-31T07:39:43;92358.91;;;22.32;57.57
53041;BME280;39326;42.650;23.248;2023-07-31T07:42:09;92374.78;;;22.24;56.38
53041;BME280;39326;42.650;23.248;2023-07-31T07:44:35;92369.97;;;22.19;56.61
53041;BME280;39326;42.650;23.248;2023-07-31T07:47:00;92372.81;;;22.25;57.10
53041;BME280;39326;42.650;23.248;2023-07-31T07:49:25;92374.19;;;22.20;56.97
53041;BME280;39326;42.650;23.248;2023-07-31T07:51:51;92386.09;;;21.99;56.49
53041;BME280;39326;42.650;23.248;2023-07-31T07:54:16;92375.75;;;21.70;57.39
53041;BME280;39326;42.650;23.248;2023-07-31T07:56:42;92384.00;;;21.94;57.38
53041;BME280;39326;42.650;23.248;2023-07-31T07:59:08;92378.84;;;22.29;56.96
53041;BME280;39326;42.650;23.248;2023-07-31T08:01:33;92380.06;;;22.52;57.44
53041;BME280;39326;42.650;23.248;2023-07-31T08:03:59;92385.13;;;22.68;55.64
53041;BME280;39326;42.650;23.248;2023-07-31T08:06:24;92384.78;;;22.75;54.95
53041;BME280;39326;42.650;23.248;2023-07-31T08:08:50;92379.47;;;22.95;55.04
53041;BME280;39326;42.650;23.248;2023-07-31T08:11:15;92379.94;;;22.94;55.06
53041;BME280;39326;42.650;23.248;2023-07-31T08:13:41;92383.13;;;22.92;53.92
53041;BME280;39326;42.650;23.248;2023-07-31T08:16:07;92393.69;;;22.76;53.83
53041;BME280;39326;42.650;23.248;2023-07-31T08:18:32;92383.16;;;23.07;53.93
53041;BME280;39326;42.650;23.248;2023-07-31T08:20:58;92368.38;;;23.23;53.94
53041;BME280;39326;42.650;23.248;2023-07-31T08:23:24;92394.53;;;23.20;53.08
53041;BME280;39326;42.650;23.248;2023-07-31T08:25:49;92400.25;;;22.84;53.12
53041;BME280;39326;42.650;23.248;2023-07-31T08:28:16;92394.84;;;22.60;53.84
53041;BME280;39326;42.650;23.248;2023-07-31T08:30:41;92393.69;;;22.76;54.01
53041;BME280;39326;42.650;23.248;2023-07-31T08:33:07;92396.63;;;22.63;53.43
53041;BME280;39326;42.650;23.248;2023-07-31T08:35:32;92390.28;;;22.66;53.50
53041;BME280;39326;42.650;23.248;2023-07-31T08:37:58;92385.84;;;22.78;53.18
53041;BME280;39326;42.650;23.248;2023-07-31T08:40:23;92378.41;;;22.78;53.11
53041;BME280;39326;42.650;23.248;2023-07-31T08:42:52;92391.06;;;22.81;52.29
53041;BME280;39326;42.650;23.248;2023-07-31T08:45:19;92393.44;;;23.27;52.74
53041;BME280;39326;42.650;23.248;2023-07-31T08:47:49;92378.34;;;23.26;52.04
53041;BME280;39326;42.650;23.248;2023-07-31T08:50:18;92386.69;;;23.22;51.75
53041;BME280;39326;42.650;23.248;2023-07-31T08:52:45;92390.31;;;23.19;51.27
53041;BME280;39326;42.650;23.248;2023-07-31T08:55:11;92395.28;;;23.21;51.64
53041;BME280;39326;42.650;23.248;2023-07-31T08:57:37;92375.53;;;23.50;50.82
53041;BME280;39326;42.650;23.248;2023-07-31T09:00:07;92382.41;;;23.60;50.58
53041;BME280;39326;42.650;23.248;2023-07-31T09:02:59;92384.75;;;23.67;49.59
53041;BME280;39326;42.650;23.248;2023-07-31T09:05:29;92378.94;;;23.60;50.49
53041;BME280;39326;42.650;23.248;2023-07-31T09:07:55;92383.13;;;23.46;50.68
53041;BME280;39326;42.650;23.248;2023-07-31T09:10:21;92383.25;;;23.66;50.52
53041;BME280;39326;42.650;23.248;2023-07-31T09:12:47;92379.09;;;24.00;48.92
53041;BME280;39326;42.650;23.248;2023-07-31T09:15:13;92369.19;;;24.18;48.76
53041;BME280;39326;42.650;23.248;2023-07-31T09:17:39;92375.09;;;24.31;47.45
53041;BME280;39326;42.650;23.248;2023-07-31T09:22:43;92365.41;;;24.30;47.22
53041;BME280;39326;42.650;23.248;2023-07-31T09:25:23;92360.22;;;24.67;49.24
53041;BME280;39326;42.650;23.248;2023-07-31T09:28:00;92368.47;;;24.73;46.04
53041;BME280;39326;42.650;23.248;2023-07-31T09:30:29;92364.75;;;24.55;46.59
53041;BME280;39326;42.650;23.248;2023-07-31T09:33:05;92362.63;;;24.45;47.64
53041;BME280;39326;42.650;23.248;2023-07-31T09:35:35;92367.75;;;24.58;47.89
53041;BME280;39326;42.650;23.248;2023-07-31T09:38:13;92369.81;;;24.63;47.33
53041;BME280;39326;42.650;23.248;2023-07-31T09:40:41;92359.75;;;24.69;46.69
53041;BME280;39326;42.650;23.248;2023-07-31T09:43:08;92356.09;;;24.57;46.08
53041;BME280;39326;42.650;23.248;2023-07-31T09:45:37;92368.47;;;24.38;45.90
53041;BME280;39326;42.650;23.248;2023-07-31T09:48:03;92361.28;;;24.20;47.28
53041;BME280;39326;42.650;23.248;2023-07-31T09:50:29;92359.97;;;24.15;48.02
53041;BME280;39326;42.650;23.248;2023-07-31T09:52:55;92351.16;;;24.41;46.34
53041;BME280;39326;42.650;23.248;2023-07-31T09:55:20;92359.00;;;24.53;46.43
53041;BME280;39326;42.650;23.248;2023-07-31T09:57:49;92353.03;;;24.49;46.13
53041;BME280;39326;42.650;23.248;2023-07-31T10:00:17;92361.47;;;24.51;46.56
53041;BME280;39326;42.650;23.248;2023-07-31T10:02:45;92354.03;;;24.32;46.38
53041;BME280;39326;42.650;23.248;2023-07-31T10:05:13;92342.38;;;24.51;46.42
53041;BME280;39326;42.650;23.248;2023-07-31T10:07:42;92343.16;;;24.93;45.55
53041;BME280;39326;42.650;23.248;2023-07-31T10:10:10;92345.50;;;25.26;44.88
53041;BME280;39326;42.650;23.248;2023-07-31T10:12:36;92346.88;;;25.42;44.62
53041;BME280;39326;42.650;23.248;2023-07-31T10:15:02;92345.50;;;25.52;43.65
53041;BME280;39326;42.650;23.248;2023-07-31T10:17:29;92347.13;;;25.38;43.79
53041;BME280;39326;42.650;23.248;2023-07-31T10:19:56;92339.06;;;25.55;43.57
53041;BME280;39326;42.650;23.248;2023-07-31T10:22:23;92338.41;;;25.97;43.07
53041;BME280;39326;42.650;23.248;2023-07-31T10:24:50;92337.16;;;26.35;41.87
53041;BME280;39326;42.650;23.248;2023-07-31T10:27:17;92326.16;;;26.19;41.49
53041;BME280;39326;42.650;23.248;2023-07-31T10:29:43;92334.81;;;25.80;41.85
53041;BME280;39326;42.650;23.248;2023-07-31T10:32:13;92332.50;;;25.73;42.20
53041;BME280;39326;42.650;23.248;2023-07-31T10:34:41;92333.28;;;25.79;42.33
53041;BME280;39326;42.650;23.248;2023-07-31T10:37:27;92323.38;;;25.81;43.24
53041;BME280;39326;42.650;23.248;2023-07-31T10:40:00;92318.44;;;26.23;42.23
53041;BME280;39326;42.650;23.248;2023-07-31T10:42:34;92320.69;;;26.19;40.53
53041;BME280;39326;42.650;23.248;2023-07-31T10:45:04;92320.59;;;26.07;41.05
53041;BME280;39326;42.650;23.248;2023-07-31T10:47:31;92316.09;;;26.04;41.58
53041;BME280;39326;42.650;23.248;2023-07-31T10:50:18;92318.44;;;26.23;41.37
53041;BME280;39326;42.650;23.248;2023-07-31T10:52:47;92325.88;;;26.59;40.47
53041;BME280;39326;42.650;23.248;2023-07-31T10:55:32;92319.97;;;26.72;39.56
53041;BME280;39326;42.650;23.248;2023-07-31T10:58:08;92315.84;;;26.99;38.20
53041;BME280;39326;42.650;23.248;2023-07-31T11:00:40;92301.97;;;27.19;38.22
53041;BME280;39326;42.650;23.248;2023-07-31T11:03:11;92313.66;;;27.20;37.43
53041;BME280;39326;42.650;23.248;2023-07-31T11:06:00;92315.44;;;27.51;37.25
53041;BME280;39326;42.650;23.248;2023-07-31T11:08:31;92309.47;;;27.47;37.18
53041;BME280;39326;42.650;23.248;2023-07-31T11:13:41;92303.53;;;27.93;37.83
53041;BME280;39326;42.650;23.248;2023-07-31T11:16:07;92302.22;;;28.34;36.98
53041;BME280;39326;42.650;23.248;2023-07-31T11:18:33;92307.19;;;28.35;35.86
53041;BME280;39326;42.650;23.248;2023-07-31T11:20:58;92306.22;;;28.33;35.06
53041;BME280;39326;42.650;23.248;2023-07-31T11:23:24;92298.41;;;28.48;34.95
53041;BME280;39326;42.650;23.248;2023-07-31T11:25:50;92290.38;;;28.61;35.07
53041;BME280;39326;42.650;23.248;2023-07-31T11:28:17;92300.22;;;28.34;35.07
53041;BME280;39326;42.650;23.248;2023-07-31T11:30:44;92304.47;;;28.13;35.69
53041;BME280;39326;42.650;23.248;2023-07-31T11:33:12;92307.22;;;27.68;36.54
53041;BME280;39326;42.650;23.248;2023-07-31T11:35:45;92303.97;;;27.41;36.62
53041;BME280;39326;42.650;23.248;2023-07-31T11:38:22;92302.97;;;27.61;36.61
53041;BME280;39326;42.650;23.248;2023-07-31T11:40:49;92301.75;;;27.57;36.98
53041;BME280;39326;42.650;23.248;2023-07-31T11:43:15;92297.09;;;26.75;37.83
53041;BME280;39326;42.650;23.248;2023-07-31T11:45:46;92301.16;;;26.42;39.14
53041;BME280;39326;42.650;23.248;2023-07-31T11:48:25;92300.28;;;26.62;39.05
53041;BME280;39326;42.650;23.248;2023-07-31T11:50:53;92303.44;;;27.20;38.97
53041;BME280;39326;42.650;23.248;2023-07-31T11:53:31;92291.78;;;27.65;36.99
53041;BME280;39326;42.650;23.248;2023-07-31T11:55:59;92288.53;;;27.66;36.27
53041;BME280;39326;42.650;23.248;2023-07-31T11:58:27;92290.31;;;27.81;36.35
53041;BME280;39326;42.650;23.248;2023-07-31T12:00:53;92298.03;;;27.77;36.66
53041;BME280;39326;42.650;23.248;2023-07-31T12:03:19;92300.28;;;27.84;36.21
53041;BME280;39326;42.650;23.248;2023-07-31T12:05:47;92290.00;;;28.18;35.25
53041;BME280;39326;42.650;23.248;2023-07-31T12:08:12;92281.22;;;28.42;35.36
53041;BME280;39326;42.650;23.248;2023-07-31T12:10:39;92282.72;;;28.43;35.71
53041;BME280;39326;42.650;23.248;2023-07-31T12:13:08;92277.47;;;28.50;34.58
53041;BME280;39326;42.650;23.248;2023-07-31T12:15:42;92274.91;;;28.69;34.79
53041;BME280;39326;42.650;23.248;2023-07-31T12:18:13;92265.88;;;28.74;34.17
53041;BME280;39326;42.650;23.248;2023-07-31T12:20:43;92267.84;;;28.79;33.79
53041;BME280;39326;42.650;23.248;2023-07-31T12:23:19;92272.34;;;28.82;34.02
53041;BME280;39326;42.650;23.248;2023-07-31T12:25:44;92269.16;;;28.67;33.94
53041;BME280;39326;42.650;23.248;2023-07-31T12:28:10;92261.19;;;28.64;34.14
53041;BME280;39326;42.650;23.248;2023-07-31T12:30:40;92267.78;;;28.44;35.08
53041;BME280;39326;42.650;23.248;2023-07-31T12:33:13;92282.84;;;27.81;36.52
53041;BME280;39326;42.650;23.248;2023-07-31T12:35:47;92278.59;;;27.63;36.73
53041;BME280;39326;42.650;23.248;2023-07-31T12:38:13;92268.63;;;27.77;36.66
53041;BME280;39326;42.650;23.248;2023-07-31T12:40:40;92264.91;;;27.74;36.58
53041;BME280;39326;42.650;23.248;2023-07-31T12:43:06;92271.59;;;27.45;36.51
53041;BME280;39326;42.650;23.248;2023-07-31T12:45:32;92267.34;;;27.28;37.17
53041;BME280;39326;42.650;23.248;2023-07-31T12:48:01;92270.22;;;26.85;37.73
53041;BME280;39326;42.650;23.248;2023-07-31T12:50:27;92266.25;;;26.86;38.08
53041;BME280;39326;42.650;23.248;2023-07-31T12:52:56;92260.56;;;26.95;37.67
53041;BME280;39326;42.650;23.248;2023-07-31T12:55:22;92256.91;;;27.48;37.57